Time;durP1;ratioP1;P1;durP2;ratioP2;P2;SDS_P1;SDS_P2;PMS_P1;PMS_P2;Temp;Humidity;BMP_temperature;BMP_pressure;BME280_temperature;BME280_humidity;BME280_pressure;Samples;Min_cycle;Max_cycle;Signal;HPM_P1;HPM_P2
2022/11/09 00:01:29;;;;;;;26.80;17.00;;;;;;;18.32;49.07;101602.46;101642;1338;59310;-83
2022/11/09 00:03:55;;;;;;;23.60;17.90;;;;;;;18.32;49.08;101606.73;101516;1339;61539;-82
2022/11/09 00:06:22;;;;;;;22.20;16.00;;;;;;;18.32;49.13;101606.91;101319;1342;61374;-82
2022/11/09 00:08:47;;;;;;;22.20;16.60;;;;;;;18.32;49.14;101601.23;101537;1329;61166;-83
2022/11/09 00:11:13;;;;;;;23.40;16.70;;;;;;;18.32;49.11;101605.48;101584;1344;61403;-84
2022/11/09 00:13:40;;;;;;;24.40;16.00;;;;;;;18.33;49.15;101603.69;101679;1339;61279;-83
2022/11/09 00:16:06;;;;;;;22.70;16.30;;;;;;;18.32;49.11;101606.91;101738;1338;61462;-83
2022/11/09 00:18:36;;;;;;;21.00;15.50;;;;;;;18.32;49.04;101609.23;101736;1334;61348;-84
2022/11/09 00:21:09;;;;;;;22.80;16.10;;;;;;;18.33;49.03;101608.52;101715;1334;74290;-83
2022/11/09 00:23:35;;;;;;;22.10;15.10;;;;;;;18.32;49.17;101606.39;101640;1336;61217;-84
2022/11/09 00:26:04;;;;;;;21.10;15.40;;;;;;;18.32;49.11;101607.83;101735;1334;61399;-83
2022/11/09 00:28:30;;;;;;;22.40;16.10;;;;;;;18.32;48.95;101605.14;101684;1335;72780;-83
2022/11/09 00:31:03;;;;;;;26.20;16.80;;;;;;;18.32;49.00;101607.27;101722;1340;61447;-82
2022/11/09 00:33:29;;;;;;;23.10;16.70;;;;;;;18.32;49.00;101604.81;101557;1337;61223;-82
2022/11/09 00:35:54;;;;;;;22.30;16.40;;;;;;;18.32;49.08;101603.72;101750;1338;61281;-82
2022/11/09 00:38:20;;;;;;;24.30;17.20;;;;;;;18.32;48.98;101603.02;101797;1338;61816;-83
2022/11/09 00:40:45;;;;;;;25.50;16.20;;;;;;;18.32;49.11;101603.54;101817;1332;61747;-84
2022/11/09 00:43:11;;;;;;;22.80;17.00;;;;;;;18.32;49.01;101603.02;101780;1335;61347;-83
2022/11/09 00:45:36;;;;;;;23.10;16.50;;;;;;;18.32;49.01;101604.06;101736;1337;61357;-83
2022/11/09 00:48:02;;;;;;;25.50;17.40;;;;;;;18.32;48.85;101607.27;101730;1331;61435;-83
2022/11/09 00:50:28;;;;;;;21.40;16.20;;;;;;;18.32;48.78;101603.00;101712;1331;61403;-83
2022/11/09 00:52:53;;;;;;;22.10;16.20;;;;;;;18.32;48.83;101602.46;101798;1338;61347;-83
2022/11/09 00:55:22;;;;;;;23.00;16.40;;;;;;;18.32;48.75;101601.23;101788;1331;61351;-83
2022/11/09 00:57:50;;;;;;;21.80;16.10;;;;;;;18.32;48.89;101599.27;101827;1333;61368;-83
2022/11/09 01:00:20;;;;;;;24.50;16.90;;;;;;;18.32;48.97;101599.11;101742;1331;61333;-82
2022/11/09 01:02:46;;;;;;;24.20;15.90;;;;;;;18.31;48.91;101599.48;101751;1339;71477;-83
2022/11/09 01:05:12;;;;;;;22.70;16.50;;;;;;;18.31;48.97;101603.40;101715;1334;61316;-82
2022/11/09 01:07:37;;;;;;;25.30;16.50;;;;;;;18.32;48.88;101601.60;101767;1334;61348;-83
2022/11/09 01:10:07;;;;;;;21.80;15.40;;;;;;;18.31;48.89;101600.54;101759;1334;61448;-83
2022/11/09 01:12:32;;;;;;;21.30;15.90;;;;;;;18.31;48.81;101598.75;101766;1332;72848;-83
2022/11/09 01:15:00;;;;;;;21.70;15.90;;;;;;;18.31;48.79;101600.02;101757;1334;61332;-83
2022/11/09 01:17:25;;;;;;;22.40;16.10;;;;;;;18.31;48.79;101603.95;101703;1339;61408;-83
2022/11/09 01:19:51;;;;;;;21.70;15.20;;;;;;;18.31;48.73;101603.06;101752;1339;61346;-82
2022/11/09 01:22:17;;;;;;;23.60;16.10;;;;;;;18.31;48.61;101602.88;101749;1336;61291;-83
2022/11/09 01:24:43;;;;;;;24.70;16.80;;;;;;;18.31;48.73;101605.20;101739;1335;61357;-83
2022/11/09 01:27:09;;;;;;;24.20;16.80;;;;;;;18.31;48.67;101605.02;101670;1335;61387;-83
2022/11/09 01:29:34;;;;;;;26.10;18.30;;;;;;;18.31;48.55;101606.27;101593;1332;61793;-82
2022/11/09 01:32:00;;;;;;;27.60;18.20;;;;;;;18.31;48.73;101610.73;101522;1339;61674;-83
2022/11/09 01:34:26;;;;;;;25.40;17.00;;;;;;;18.31;48.60;101613.73;101576;1338;61351;-83
2022/11/09 01:36:52;;;;;;;24.50;17.30;;;;;;;18.31;48.71;101611.97;101662;1339;61356;-83
2022/11/09 01:39:18;;;;;;;23.70;15.90;;;;;;;18.32;48.60;101613.70;101593;1331;61278;-83
2022/11/09 01:41:44;;;;;;;26.30;16.90;;;;;;;18.31;48.55;101608.56;101656;1338;61323;-83
2022/11/09 01:44:11;;;;;;;22.30;16.20;;;;;;;18.31;48.58;101608.39;101754;1339;61451;-83
2022/11/09 01:46:52;;;;;;;25.80;17.20;;;;;;;18.32;48.51;101611.94;101758;1334;61353;-83
2022/11/09 01:49:30;;;;;;;25.30;16.70;;;;;;;18.31;48.67;101616.59;101694;1336;61775;-83
2022/11/09 01:51:58;;;;;;;24.80;17.00;;;;;;;18.31;48.59;101613.02;101698;1336;61224;-83
2022/11/09 01:54:33;;;;;;;26.70;17.20;;;;;;;18.31;48.44;101618.02;101647;1336;73656;-80
2022/11/09 01:57:06;;;;;;;21.80;16.10;;;;;;;18.31;48.56;101616.23;101599;1329;73354;-80
2022/11/09 01:59:34;;;;;;;23.20;16.90;;;;;;;18.31;48.53;101615.34;101556;1332;61289;-81
2022/11/09 02:02:02;;;;;;;22.90;16.00;;;;;;;18.32;48.57;101614.77;101567;1339;61344;-83
2022/11/09 02:04:32;;;;;;;24.10;17.10;;;;;;;18.32;48.58;101616.75;101741;1332;72608;-82
2022/11/09 02:06:58;;;;;;;26.00;16.70;;;;;;;18.32;48.66;101618.86;101782;1331;75500;-83
2022/11/09 02:09:29;;;;;;;25.60;17.00;;;;;;;18.32;48.35;101617.42;101772;1331;61498;-83
2022/11/09 02:11:54;;;;;;;24.80;18.10;;;;;;;18.32;48.36;101620.64;101819;1334;62520;-83
2022/11/09 02:14:21;;;;;;;27.60;18.10;;;;;;;18.32;48.41;101621.70;101761;1339;61364;-84
2022/11/09 02:16:47;;;;;;;28.80;17.80;;;;;;;18.31;48.28;101621.55;101786;1328;61296;-83
2022/11/09 02:19:12;;;;;;;24.60;17.80;;;;;;;18.31;48.39;101623.55;101742;1332;61365;-83
2022/11/09 02:21:38;;;;;;;24.60;17.80;;;;;;;18.31;48.31;101622.30;101757;1339;61298;-84
2022/11/09 02:24:04;;;;;;;23.40;17.60;;;;;;;18.31;48.19;101618.03;101734;1332;61316;-83
2022/11/09 02:26:31;;;;;;;25.60;17.10;;;;;;;18.30;48.25;101615.56;101785;1339;61411;-83
2022/11/09 02:28:57;;;;;;;25.30;16.50;;;;;;;18.30;48.35;101617.70;101777;1331;76367;-84
2022/11/09 02:31:24;;;;;;;27.40;17.70;;;;;;;18.30;48.08;101612.02;101748;1318;61286;-83
2022/11/09 02:33:50;;;;;;;24.20;16.70;;;;;;;18.29;48.32;101611.33;101798;1334;61361;-83
2022/11/09 02:36:16;;;;;;;25.70;16.60;;;;;;;18.29;48.22;101610.44;101839;1331;61321;-83
2022/11/09 02:38:41;;;;;;;28.30;18.10;;;;;;;18.29;48.13;101608.70;101823;1333;61322;-83
2022/11/09 02:41:08;;;;;;;30.30;18.10;;;;;;;18.28;48.19;101611.36;101762;1334;61391;-83
2022/11/09 02:43:34;;;;;;;25.10;17.40;;;;;;;18.29;48.18;101609.94;101814;1335;61177;-83
2022/11/09 02:46:00;;;;;;;27.60;18.20;;;;;;;18.28;48.19;101612.81;101765;1334;61448;-83
2022/11/09 02:48:25;;;;;;;25.00;17.60;;;;;;;18.28;48.21;101614.25;101738;1338;61339;-83
2022/11/09 02:50:51;;;;;;;24.80;17.00;;;;;;;18.28;48.26;101611.73;101754;1336;61332;-83
2022/11/09 02:53:16;;;;;;;25.70;17.20;;;;;;;18.28;48.12;101611.94;101727;1338;61352;-83
2022/11/09 02:55:42;;;;;;;25.00;18.30;;;;;;;18.27;48.16;101607.31;101772;1339;61332;-83
2022/11/09 02:58:07;;;;;;;29.40;19.20;;;;;;;18.27;48.16;101605.01;101746;1334;62547;-83
2022/11/09 03:00:33;;;;;;;26.10;18.50;;;;;;;18.27;48.05;101609.64;101772;1334;61441;-83
2022/11/09 03:02:58;;;;;;;24.40;17.60;;;;;;;18.27;48.13;101606.42;101820;1334;61409;-83
2022/11/09 03:05:24;;;;;;;25.20;17.10;;;;;;;18.26;47.96;101605.57;101751;1332;61345;-83
2022/11/09 03:07:49;;;;;;;27.40;17.20;;;;;;;18.27;48.08;101606.27;101736;1328;61894;-83
2022/11/09 03:10:15;;;;;;;25.00;17.20;;;;;;;18.26;48.04;101609.67;101783;1335;61361;-83
2022/11/09 03:12:41;;;;;;;27.00;18.40;;;;;;;18.26;47.92;101605.95;101753;1335;61313;-84
2022/11/09 03:15:07;;;;;;;24.60;17.60;;;;;;;18.26;47.99;101608.26;101776;1334;61342;-82
2022/11/09 03:17:33;;;;;;;28.60;18.10;;;;;;;18.26;47.87;101602.92;101747;1339;61171;-83
2022/11/09 03:19:59;;;;;;;23.60;17.20;;;;;;;18.25;47.81;101606.70;101752;1334;61334;-83
2022/11/09 03:22:24;;;;;;;25.70;17.90;;;;;;;18.25;48.02;101609.35;101739;1335;61330;-82
2022/11/09 03:24:50;;;;;;;26.30;18.20;;;;;;;18.25;47.93;101612.05;101740;1334;61383;-82
2022/11/09 03:27:16;;;;;;;25.50;18.20;;;;;;;18.25;47.85;101606.52;101753;1325;61342;-82
2022/11/09 03:29:42;;;;;;;23.80;16.80;;;;;;;18.25;48.00;101607.96;101749;1335;61307;-83
2022/11/09 03:32:08;;;;;;;24.70;17.60;;;;;;;18.25;47.83;101612.40;101765;1334;61346;-83
2022/11/09 03:34:34;;;;;;;26.40;17.50;;;;;;;18.25;47.87;101614.91;101753;1339;72481;-83
2022/11/09 03:36:59;;;;;;;22.40;16.90;;;;;;;18.25;47.77;101613.66;101734;1343;61322;-83
2022/11/09 03:39:27;;;;;;;27.20;18.60;;;;;;;18.24;47.86;101616.02;101757;1334;61487;-83
2022/11/09 03:41:55;;;;;;;24.00;16.90;;;;;;;18.24;47.83;101616.90;101755;1336;61345;-83
2022/11/09 03:44:20;;;;;;;28.00;18.90;;;;;;;18.24;47.80;101614.58;101695;1337;73668;-84
2022/11/09 03:46:47;;;;;;;28.50;17.80;;;;;;;18.24;47.67;101617.27;101795;1334;61320;-83
2022/11/09 03:49:13;;;;;;;28.10;17.80;;;;;;;18.24;47.66;101616.90;101754;1335;61591;-83
2022/11/09 03:51:39;;;;;;;28.00;18.70;;;;;;;18.24;47.80;101618.67;101848;1326;61505;-83
2022/11/09 03:54:04;;;;;;;26.30;18.00;;;;;;;18.23;47.84;101618.02;101787;1335;61351;-83
2022/11/09 03:56:30;;;;;;;24.00;17.70;;;;;;;18.23;47.66;101616.07;101750;1332;61349;-82
2022/11/09 03:58:55;;;;;;;27.50;18.30;;;;;;;18.23;47.75;101623.36;101856;1339;59861;-82
2022/11/09 04:01:21;;;;;;;27.30;17.20;;;;;;;18.23;47.62;101625.50;101827;1330;61439;-82
2022/11/09 04:03:46;;;;;;;23.60;17.50;;;;;;;18.23;47.55;101623.54;101793;1334;61455;-83
2022/11/09 04:06:12;;;;;;;24.10;17.60;;;;;;;18.23;47.59;101626.94;101790;1322;61592;-84
2022/11/09 04:08:37;;;;;;;25.20;17.70;;;;;;;18.22;47.66;101626.05;101729;1338;61467;-83
2022/11/09 04:11:03;;;;;;;23.30;16.70;;;;;;;18.23;47.57;101622.14;101820;1333;61353;-83
2022/11/09 04:13:29;;;;;;;27.60;18.50;;;;;;;18.23;47.61;101621.26;101757;1324;61206;-84
2022/11/09 04:15:54;;;;;;;23.40;16.60;;;;;;;18.22;47.48;101622.52;101810;1337;61512;-83
2022/11/09 04:18:20;;;;;;;22.60;16.70;;;;;;;18.22;47.51;101621.45;101767;1335;61228;-83
2022/11/09 04:20:45;;;;;;;25.30;17.50;;;;;;;18.22;47.48;101623.77;101734;1336;61440;-83
2022/11/09 04:23:13;;;;;;;26.90;17.70;;;;;;;18.22;47.55;101624.30;101840;1333;61356;-84
2022/11/09 04:25:39;;;;;;;25.80;17.70;;;;;;;18.22;47.42;101625.89;101828;1334;61181;-82
2022/11/09 04:28:05;;;;;;;27.00;18.70;;;;;;;18.21;47.47;101622.01;101789;1331;61347;-84
2022/11/09 04:30:32;;;;;;;26.20;17.30;;;;;;;18.21;47.54;101623.43;101757;1334;61364;-83
2022/11/09 04:32:58;;;;;;;26.80;18.30;;;;;;;18.21;47.45;101625.05;101735;1331;74758;-83
2022/11/09 04:35:24;;;;;;;25.90;18.30;;;;;;;18.22;47.49;101629.33;101756;1335;61306;-83
2022/11/09 04:37:57;;;;;;;27.20;19.10;;;;;;;18.21;47.39;101633.27;101762;1335;61373;-83
2022/11/09 04:40:23;;;;;;;27.00;18.80;;;;;;;18.21;47.42;101638.24;101806;1326;73462;-83
2022/11/09 04:42:48;;;;;;;24.00;17.70;;;;;;;18.21;47.48;101638.98;101716;1332;60148;-82
2022/11/09 04:45:14;;;;;;;23.20;17.20;;;;;;;18.20;47.32;101643.08;101831;1327;61319;-82
2022/11/09 04:47:39;;;;;;;28.10;18.20;;;;;;;18.21;47.35;101641.66;101786;1332;61293;-82
2022/11/09 04:50:05;;;;;;;25.50;17.00;;;;;;;18.20;47.40;101640.58;101790;1333;61391;-83
2022/11/09 04:52:31;;;;;;;26.60;17.70;;;;;;;18.20;47.22;101642.91;101766;1339;61334;-83
2022/11/09 04:54:57;;;;;;;24.40;17.80;;;;;;;18.20;47.27;101643.12;101768;1338;75625;-82
2022/11/09 04:57:22;;;;;;;26.50;18.10;;;;;;;18.20;47.17;101648.09;101842;1333;61786;-82
2022/11/09 04:59:48;;;;;;;26.60;17.70;;;;;;;18.20;47.40;101655.06;101750;1328;61447;-82
2022/11/09 05:02:13;;;;;;;25.20;16.70;;;;;;;18.20;47.23;101659.50;101750;1334;61284;-82
2022/11/09 05:04:39;;;;;;;24.60;17.00;;;;;;;18.19;47.06;101662.05;101853;1333;61317;-82
2022/11/09 05:07:04;;;;;;;23.70;16.80;;;;;;;18.17;47.12;101659.84;101815;1335;74505;-83
2022/11/09 05:09:30;;;;;;;18.70;13.70;;;;;;;18.13;46.83;101659.84;101769;1333;61336;-83
2022/11/09 05:11:56;;;;;;;21.30;14.70;;;;;;;18.08;46.90;101666.45;101725;1334;61287;-83
2022/11/09 05:14:23;;;;;;;24.60;14.80;;;;;;;18.05;46.79;101668.20;101726;1334;61807;-82
2022/11/09 05:16:49;;;;;;;25.20;16.80;;;;;;;18.01;46.70;101673.36;101700;1337;61314;-82
2022/11/09 05:19:15;;;;;;;28.60;16.90;;;;;;;17.97;46.52;101677.45;101730;1334;61372;-82
2022/11/09 05:24:50;;;;;;;28.70;17.10;;;;;;;17.87;46.41;101682.13;101405;1332;73658;-82
2022/11/09 05:27:18;;;;;;;28.30;17.10;;;;;;;17.84;46.17;101679.95;101133;1331;75647;-82
2022/11/09 05:29:44;;;;;;;32.50;17.10;;;;;;;17.80;46.17;101682.61;101213;1331;61405;-81
2022/11/09 05:32:09;;;;;;;25.40;16.80;;;;;;;17.77;46.17;101687.92;101398;1332;61412;-82
2022/11/09 05:34:35;;;;;;;25.40;17.40;;;;;;;17.74;46.02;101693.35;101228;1330;61295;-82
2022/11/09 05:37:03;;;;;;;29.20;17.40;;;;;;;17.72;46.09;101700.06;101284;1329;61335;-84
2022/11/09 05:39:28;;;;;;;28.80;16.70;;;;;;;17.69;46.08;101701.92;101282;1325;61332;-83
2022/11/09 05:41:55;;;;;;;28.20;16.30;;;;;;;17.69;46.03;101704.07;101108;1332;61349;-82
2022/11/09 05:44:20;;;;;;;23.50;17.10;;;;;;;17.71;46.03;101708.44;101447;1328;61327;-82
2022/11/09 05:46:46;;;;;;;25.80;17.80;;;;;;;17.72;46.33;101708.92;101070;1332;61455;-82
2022/11/09 05:49:11;;;;;;;27.40;18.10;;;;;;;17.74;46.39;101708.85;101199;1329;63602;-82
2022/11/09 05:51:37;;;;;;;27.60;17.90;;;;;;;17.76;46.39;101714.83;100378;1339;673674;-82
2022/11/09 05:54:03;;;;;;;26.80;18.40;;;;;;;17.77;46.45;101714.42;100907;1328;61353;-82
2022/11/09 05:56:29;;;;;;;31.50;19.10;;;;;;;17.79;46.63;101718.26;100919;1325;62061;-82
2022/11/09 05:58:56;;;;;;;32.40;17.80;;;;;;;17.81;46.63;101719.09;100839;1325;61497;-82
2022/11/09 06:01:22;;;;;;;32.00;17.00;;;;;;;17.80;46.41;101719.47;102139;1329;59923;-85
2022/11/09 06:03:48;;;;;;;25.40;16.60;;;;;;;17.80;46.62;101724.10;101663;1318;60095;-85
2022/11/09 06:06:14;;;;;;;33.70;18.40;;;;;;;17.80;46.64;101725.32;100903;1324;61221;-83
2022/11/09 06:08:41;;;;;;;26.10;16.70;;;;;;;17.81;46.49;101725.11;100956;1326;61310;-82
2022/11/09 06:11:08;;;;;;;40.00;19.70;;;;;;;17.83;46.62;101725.39;101147;1322;61236;-83
2022/11/09 06:13:34;;;;;;;36.00;18.70;;;;;;;17.85;46.56;101730.83;101131;1318;61484;-83
2022/11/09 06:16:00;;;;;;;45.40;17.50;;;;;;;17.87;46.82;101731.30;101066;1318;61237;-83
2022/11/09 06:18:27;;;;;;;40.60;17.30;;;;;;;17.90;46.77;101732.21;101176;1323;61334;-83
2022/11/09 06:20:54;;;;;;;45.30;18.70;;;;;;;17.94;46.84;101734.39;101223;1326;61649;-84
2022/11/09 06:23:43;;;;;;;28.40;15.30;;;;;;;17.97;47.14;101735.33;101078;1325;61362;-84
2022/11/09 06:26:09;;;;;;;40.50;18.60;;;;;;;18.00;47.54;101733.79;100871;1329;72714;-83
2022/11/09 06:28:36;;;;;;;38.80;18.20;;;;;;;18.03;47.57;101733.85;100816;1332;61542;-85
2022/11/09 06:31:28;;;;;;;39.70;16.60;;;;;;;18.05;47.89;101736.08;100889;1329;61434;-87
2022/11/09 06:33:54;;;;;;;50.30;18.60;;;;;;;18.06;48.06;101734.07;100286;1337;61299;-83
2022/11/09 06:36:20;;;;;;;45.30;17.40;;;;;;;18.07;48.06;101734.73;100207;1338;61675;-84
2022/11/09 06:39:12;;;;;;;40.00;21.10;;;;;;;18.11;48.68;101731.69;100380;1337;61366;-83
2022/11/09 06:41:37;;;;;;;48.50;22.20;;;;;;;18.18;49.91;101730.86;99779;1340;61590;-84
2022/11/09 06:44:05;;;;;;;51.60;21.10;;;;;;;18.23;51.01;101730.98;99812;1344;61377;-82
2022/11/09 06:46:31;;;;;;;50.90;20.60;;;;;;;18.28;51.97;101732.58;99868;1339;72636;-83
2022/11/09 06:48:57;;;;;;;47.10;20.20;;;;;;;18.33;53.00;101735.38;99771;1340;61372;-82
2022/11/09 06:51:48;;;;;;;43.20;19.80;;;;;;;18.37;53.97;101733.95;99712;1340;62198;-83
2022/11/09 06:54:14;;;;;;;35.30;18.50;;;;;;;18.35;54.70;101734.94;98971;1345;61943;-83
2022/11/09 06:56:41;;;;;;;22.40;13.30;;;;;;;18.26;55.13;101736.05;99007;1350;61437;-83
2022/11/09 06:59:07;;;;;;;33.00;18.20;;;;;;;18.20;55.70;101739.70;98853;1355;61478;-83
2022/11/09 07:01:33;;;;;;;42.10;19.40;;;;;;;18.20;56.13;101742.02;98987;1349;61657;-84
2022/11/09 07:03:58;;;;;;;35.70;18.80;;;;;;;18.16;56.24;101737.88;99046;1344;61393;-84
2022/11/09 07:06:26;;;;;;;36.70;19.00;;;;;;;18.08;56.57;101741.64;99071;1338;61379;-84
2022/11/09 07:08:55;;;;;;;32.00;16.80;;;;;;;18.07;56.93;101740.23;99296;1343;61682;-84
2022/11/09 07:11:22;;;;;;;39.10;18.40;;;;;;;18.11;57.35;101739.39;99467;1336;61227;-82
2022/11/09 07:13:48;;;;;;;37.00;17.10;;;;;;;18.15;57.78;101737.94;99938;1336;61894;-83
2022/11/09 07:16:16;;;;;;;39.00;18.80;;;;;;;18.21;58.15;101740.16;100082;1337;61378;-84
2022/11/09 07:18:43;;;;;;;35.30;16.60;;;;;;;18.28;58.46;101740.23;100185;1330;74716;-84
2022/11/09 07:21:09;;;;;;;32.60;18.20;;;;;;;18.33;58.58;101741.27;100577;1327;61236;-83
2022/11/09 07:23:35;;;;;;;37.50;18.10;;;;;;;18.35;58.85;101742.38;100718;1332;61484;-83
2022/11/09 07:26:03;;;;;;;28.20;17.10;;;;;;;18.37;58.97;101740.52;100748;1333;61360;-84
2022/11/09 07:28:30;;;;;;;32.80;17.10;;;;;;;18.39;59.10;101740.98;100807;1332;75884;-83
2022/11/09 07:30:58;;;;;;;31.80;17.90;;;;;;;18.40;59.43;101740.94;100780;1335;61302;-84
2022/11/09 07:33:25;;;;;;;36.10;18.10;;;;;;;18.41;59.58;101740.87;101393;1323;61350;-84
2022/11/09 07:35:52;;;;;;;50.00;19.50;;;;;;;18.43;59.83;101742.77;101505;1322;72486;-85
2022/11/09 07:38:18;;;;;;;36.70;19.90;;;;;;;18.43;59.91;101742.58;101465;1322;74506;-83
2022/11/09 07:40:44;;;;;;;36.80;19.60;;;;;;;18.43;60.07;101742.74;101360;1318;61161;-84
2022/11/09 07:43:10;;;;;;;31.00;19.00;;;;;;;18.43;60.03;101747.02;101209;1321;61433;-84
2022/11/09 07:45:36;;;;;;;38.30;20.10;;;;;;;18.43;60.16;101746.30;101143;1320;61320;-83
2022/11/09 07:48:04;;;;;;;34.20;18.90;;;;;;;18.43;60.20;101746.83;101371;1322;61415;-83
2022/11/09 07:50:31;;;;;;;33.50;19.90;;;;;;;18.45;60.33;101745.88;101279;1319;61391;-83
2022/11/09 07:52:57;;;;;;;34.70;18.50;;;;;;;18.45;60.41;101743.38;101148;1322;61162;-83
2022/11/09 07:55:25;;;;;;;38.00;18.30;;;;;;;18.40;60.12;101745.95;101103;1323;61314;-83
2022/11/09 07:58:02;;;;;;;41.40;18.00;;;;;;;18.33;59.86;101745.90;101366;1323;74385;-83
2022/11/09 08:00:29;;;;;;;34.40;18.10;;;;;;;18.27;59.63;101750.42;102145;1318;60145;-84
2022/11/09 08:02:54;;;;;;;35.70;17.70;;;;;;;18.19;59.53;101749.85;101260;1321;61271;-83
2022/11/09 08:05:21;;;;;;;40.20;17.60;;;;;;;18.14;59.56;101749.38;101643;1322;61357;-83
2022/11/09 08:07:47;;;;;;;33.70;17.60;;;;;;;18.13;59.60;101749.81;101561;1319;61395;-82
2022/11/09 08:10:12;;;;;;;28.90;16.90;;;;;;;18.03;59.23;101753.27;101253;1322;61212;-85
2022/11/09 08:12:38;;;;;;;42.90;17.60;;;;;;;17.94;59.21;101751.48;101163;1324;61410;-83
2022/11/09 08:15:04;;;;;;;38.10;18.40;;;;;;;17.88;59.01;101752.59;101180;1322;61322;-84
2022/11/09 08:17:30;;;;;;;32.10;17.50;;;;;;;17.85;58.91;101753.60;101160;1320;61315;-83
2022/11/09 08:19:56;;;;;;;38.30;17.60;;;;;;;17.86;58.96;101753.37;101309;1326;61347;-83
2022/11/09 08:22:21;;;;;;;33.50;16.40;;;;;;;17.90;59.08;101755.36;101228;1321;61153;-82
2022/11/09 08:24:49;;;;;;;30.90;18.00;;;;;;;17.95;59.14;101752.52;101214;1322;61353;-82
2022/11/09 08:27:14;;;;;;;29.00;16.10;;;;;;;17.99;59.21;101755.38;101391;1323;61088;-81
2022/11/09 08:29:40;;;;;;;28.60;16.80;;;;;;;18.02;59.19;101755.23;101443;1323;61340;-83
2022/11/09 08:32:05;;;;;;;28.40;17.50;;;;;;;18.04;59.09;101755.85;101363;1319;61427;-82
2022/11/09 08:34:32;;;;;;;34.20;19.20;;;;;;;18.07;59.00;101753.95;101374;1325;61296;-83
2022/11/09 08:37:01;;;;;;;32.10;19.80;;;;;;;18.07;58.78;101752.16;101387;1331;61325;-83
2022/11/09 08:39:26;;;;;;;35.70;21.30;;;;;;;18.06;58.77;101748.63;101326;1330;61332;-79
2022/11/09 08:41:52;;;;;;;35.00;21.50;;;;;;;18.06;58.70;101745.61;101438;1321;61231;-83
2022/11/09 08:44:18;;;;;;;43.50;19.40;;;;;;;18.07;58.59;101744.70;101515;1338;61330;-83
2022/11/09 08:46:44;;;;;;;36.40;21.60;;;;;;;18.06;58.54;101741.70;101416;1323;61450;-85
2022/11/09 08:49:10;;;;;;;66.10;22.40;;;;;;;18.06;58.51;101745.64;101312;1323;61176;-83
2022/11/09 08:51:35;;;;;;;55.50;20.10;;;;;;;18.04;58.26;101744.98;101556;1323;61346;-83
2022/11/09 08:54:03;;;;;;;49.90;22.20;;;;;;;18.04;58.26;101747.69;101396;1325;61358;-83
2022/11/09 08:56:29;;;;;;;44.90;21.60;;;;;;;18.02;57.99;101746.69;101434;1324;61229;-83
2022/11/09 08:58:54;;;;;;;55.10;22.70;;;;;;;18.00;57.76;101744.48;101311;1321;61375;-82
2022/11/09 09:01:20;;;;;;;47.10;21.20;;;;;;;17.98;57.82;101743.48;101278;1323;61515;-82
2022/11/09 09:03:46;;;;;;;36.60;21.50;;;;;;;17.94;57.50;101739.38;101097;1324;61306;-84
2022/11/09 09:06:11;;;;;;;40.10;20.70;;;;;;;17.85;57.03;101736.54;101225;1319;61308;-84
2022/11/09 09:08:37;;;;;;;46.10;19.50;;;;;;;17.79;56.91;101731.43;101342;1323;61324;-84
2022/11/09 09:11:03;;;;;;;38.90;20.70;;;;;;;17.79;56.88;101730.90;101165;1324;61275;-84
2022/11/09 09:13:30;;;;;;;37.30;20.00;;;;;;;17.80;56.49;101730.34;101284;1319;62059;-84
2022/11/09 09:15:55;;;;;;;46.50;20.90;;;;;;;17.76;56.35;101729.23;102499;1325;59947;-84
2022/11/09 09:18:21;;;;;;;42.90;21.70;;;;;;;17.76;56.09;101728.02;101823;1318;61414;-84
2022/11/09 09:20:46;;;;;;;35.50;19.60;;;;;;;17.75;56.16;101724.83;101263;1319;61551;-85
2022/11/09 09:23:14;;;;;;;38.40;18.50;;;;;;;17.75;55.95;101722.85;101102;1325;61385;-84
2022/11/09 09:25:39;;;;;;;39.70;19.80;;;;;;;17.76;55.94;101723.53;101317;1323;61327;-85
2022/11/09 09:28:05;;;;;;;32.70;17.30;;;;;;;17.77;55.70;101723.16;101463;1331;61421;-85
2022/11/09 09:30:30;;;;;;;29.30;17.10;;;;;;;17.77;55.71;101724.59;101777;1329;61263;-85
2022/11/09 09:32:58;;;;;;;32.50;18.80;;;;;;;17.77;55.50;101724.95;101617;1337;73653;-84
2022/11/09 09:35:26;;;;;;;29.90;18.10;;;;;;;17.69;55.33;101718.88;101616;1324;75713;-85
2022/11/09 09:37:53;;;;;;;34.70;19.40;;;;;;;17.66;55.13;101717.59;102333;1333;60097;-85
2022/11/09 09:40:22;;;;;;;33.90;18.70;;;;;;;17.66;54.98;101718.48;101717;1324;61261;-84
2022/11/09 09:42:48;;;;;;;25.40;17.40;;;;;;;17.66;55.03;101710.08;101580;1326;72841;-85
2022/11/09 09:45:21;;;;;;;31.20;18.40;;;;;;;17.68;54.69;101708.05;101605;1326;59848;-83
2022/11/09 09:48:24;;;;;;;33.80;19.10;;;;;;;17.70;54.52;101702.81;101857;1327;61181;-83
2022/11/09 09:50:53;;;;;;;29.90;19.40;;;;;;;17.70;54.45;101699.41;101786;1321;61219;-83
2022/11/09 09:53:32;;;;;;;45.60;18.80;;;;;;;17.71;54.25;101698.30;101665;1329;72569;-83
2022/11/09 09:56:17;;;;;;;;;;;;;;;17.71;54.14;101700.59;101663;1321;74673;-84
2022/11/09 09:59:04;;;;;;;33.80;18.10;;;;;;;17.70;54.00;101701.02;101652;1317;61362;-85
2022/11/09 10:01:39;;;;;;;43.30;19.90;;;;;;;17.64;53.84;101695.93;101844;1323;61707;-84
2022/11/09 10:04:15;;;;;;;41.70;19.00;;;;;;;17.62;53.65;101691.58;101729;1325;73017;-85
2022/11/09 10:07:04;;;;;;;54.50;20.40;;;;;;;17.55;53.43;101687.21;101587;1317;75653;-84
2022/11/09 10:09:50;;;;;;;36.00;18.70;;;;;;;17.50;53.55;101685.12;102610;1336;59067;-85
2022/11/09 10:12:16;;;;;;;38.40;18.80;;;;;;;17.42;53.27;101684.76;101824;1321;61337;-84
2022/11/09 10:14:41;;;;;;;34.60;18.80;;;;;;;17.38;53.27;101684.20;101973;1318;61406;-84
2022/11/09 10:17:27;;;;;;;44.30;20.20;;;;;;;17.40;53.14;101682.70;101824;1325;61338;-84
2022/11/09 10:20:03;;;;;;;44.40;20.30;;;;;;;17.45;53.09;101682.48;101853;1321;63515;-83
2022/11/09 10:22:45;;;;;;;37.50;20.00;;;;;;;17.48;53.10;101678.45;101743;1323;61238;-84
2022/11/09 10:25:17;;;;;;;49.50;21.10;;;;;;;17.51;53.07;101677.79;101770;1336;73571;-84
2022/11/09 10:27:56;;;;;;;38.50;18.60;;;;;;;17.51;52.93;101674.58;101688;1322;73795;-85
2022/11/09 10:30:23;;;;;;;35.10;18.50;;;;;;;17.48;52.61;101672.77;101712;1326;60195;-86
2022/11/09 10:33:17;;;;;;;34.20;20.70;;;;;;;17.47;52.47;101670.84;102223;1325;61467;-84
2022/11/09 10:35:45;;;;;;;39.00;20.40;;;;;;;17.48;52.59;101667.44;101712;1324;72684;-84
2022/11/09 10:38:44;;;;;;;39.90;18.40;;;;;;;17.52;52.60;101665.30;101683;1337;75002;-85
2022/11/09 10:41:45;;;;;;;37.40;19.50;;;;;;;17.57;52.80;101659.02;101521;1329;61403;-84
2022/11/09 10:44:17;;;;;;;31.10;19.10;;;;;;;17.60;52.71;101661.38;101361;1335;61284;-85
2022/11/09 10:47:17;;;;;;;37.00;19.80;;;;;;;17.54;52.42;101658.79;101348;1328;73866;-84
2022/11/09 10:49:42;;;;;;;36.40;20.30;;;;;;;17.44;52.33;101651.38;101200;1331;75884;-86
2022/11/09 10:52:31;;;;;;;39.10;22.90;;;;;;;17.42;52.14;101654.13;101331;1327;61439;-84
2022/11/09 10:55:15;;;;;;;45.40;22.80;;;;;;;17.46;52.21;101651.68;101432;1327;61133;-84
2022/11/09 10:57:50;;;;;;;44.40;21.30;;;;;;;17.50;52.16;101648.46;101276;1331;72909;-83
2022/11/09 11:00:18;;;;;;;47.70;22.70;;;;;;;17.52;52.20;101646.42;101357;1321;74669;-83
2022/11/09 11:02:44;;;;;;;42.10;21.70;;;;;;;17.54;52.22;101642.41;101250;1331;59559;-84
2022/11/09 11:05:19;;;;;;;50.90;22.00;;;;;;;17.57;52.32;101639.09;102006;1347;59284;-87
2022/11/09 11:07:45;;;;;;;35.80;20.90;;;;;;;17.60;52.58;101637.88;101940;1343;72235;-84
2022/11/09 11:10:16;;;;;;;39.80;20.30;;;;;;;17.63;52.62;101634.23;101862;1346;59125;-84